sensor_id;sensor_type;location;lat;lon;timestamp;temperature;humidity
47168;DHT22;32931;47.778;17.806;2023-08-12T00:00:55;20.20;93.20
47168;DHT22;32931;47.778;17.806;2023-08-12T00:03:21;20.20;93.20
47168;DHT22;32931;47.778;17.806;2023-08-12T00:05:47;20.20;93.30
47168;DHT22;32931;47.778;17.806;2023-08-12T00:08:13;20.10;93.30
47168;DHT22;32931;47.778;17.806;2023-08-12T00:10:39;20.10;93.40
47168;DHT22;32931;47.778;17.806;2023-08-12T00:13:06;20.10;93.40
47168;DHT22;32931;47.778;17.806;2023-08-12T00:15:32;20.00;93.60
47168;DHT22;32931;47.778;17.806;2023-08-12T00:17:58;20.10;93.70
47168;DHT22;32931;47.778;17.806;2023-08-12T00:20:24;20.10;93.70
47168;DHT22;32931;47.778;17.806;2023-08-12T00:22:51;20.00;93.80
47168;DHT22;32931;47.778;17.806;2023-08-12T00:25:17;20.00;94.20
47168;DHT22;32931;47.778;17.806;2023-08-12T00:27:43;20.00;94.10
47168;DHT22;32931;47.778;17.806;2023-08-12T00:30:09;20.00;94.20
47168;DHT22;32931;47.778;17.806;2023-08-12T00:32:35;20.00;94.30
47168;DHT22;32931;47.778;17.806;2023-08-12T00:35:02;19.90;94.30
47168;DHT22;32931;47.778;17.806;2023-08-12T00:37:28;19.90;94.40
47168;DHT22;32931;47.778;17.806;2023-08-12T00:39:55;19.90;94.50
47168;DHT22;32931;47.778;17.806;2023-08-12T00:42:21;19.90;94.50
47168;DHT22;32931;47.778;17.806;2023-08-12T00:44:47;19.90;94.50
47168;DHT22;32931;47.778;17.806;2023-08-12T00:47:13;19.90;94.60
47168;DHT22;32931;47.778;17.806;2023-08-12T00:49:41;19.90;94.60
47168;DHT22;32931;47.778;17.806;2023-08-12T00:52:09;19.90;94.60
47168;DHT22;32931;47.778;17.806;2023-08-12T00:54:35;19.80;94.60
47168;DHT22;32931;47.778;17.806;2023-08-12T00:57:02;19.90;94.60
47168;DHT22;32931;47.778;17.806;2023-08-12T00:59:28;19.80;94.60
47168;DHT22;32931;47.778;17.806;2023-08-12T01:01:55;19.80;94.60
47168;DHT22;32931;47.778;17.806;2023-08-12T01:04:21;19.80;94.60
47168;DHT22;32931;47.778;17.806;2023-08-12T01:06:47;19.80;94.80
47168;DHT22;32931;47.778;17.806;2023-08-12T01:09:13;19.80;95.00
47168;DHT22;32931;47.778;17.806;2023-08-12T01:11:48;19.90;95.00
47168;DHT22;32931;47.778;17.806;2023-08-12T01:16:49;19.80;95.00
47168;DHT22;32931;47.778;17.806;2023-08-12T01:19:36;19.80;94.90
47168;DHT22;32931;47.778;17.806;2023-08-12T01:22:04;19.70;94.90
47168;DHT22;32931;47.778;17.806;2023-08-12T01:24:41;19.70;94.80
47168;DHT22;32931;47.778;17.806;2023-08-12T01:27:08;19.70;94.90
47168;DHT22;32931;47.778;17.806;2023-08-12T01:29:44;19.60;94.80
47168;DHT22;32931;47.778;17.806;2023-08-12T01:32:26;19.60;94.90
47168;DHT22;32931;47.778;17.806;2023-08-12T01:35:16;19.60;95.00
47168;DHT22;32931;47.778;17.806;2023-08-12T01:37:43;19.50;95.00
47168;DHT22;32931;47.778;17.806;2023-08-12T01:40:11;19.50;95.00
47168;DHT22;32931;47.778;17.806;2023-08-12T01:42:39;19.50;95.10
47168;DHT22;32931;47.778;17.806;2023-08-12T01:45:06;19.50;95.10
47168;DHT22;32931;47.778;17.806;2023-08-12T01:47:33;19.40;95.20
47168;DHT22;32931;47.778;17.806;2023-08-12T01:49:59;19.40;95.20
47168;DHT22;32931;47.778;17.806;2023-08-12T01:52:25;19.40;95.30
47168;DHT22;32931;47.778;17.806;2023-08-12T01:54:51;19.40;95.30
47168;DHT22;32931;47.778;17.806;2023-08-12T01:57:17;19.40;95.30
47168;DHT22;32931;47.778;17.806;2023-08-12T01:59:44;19.30;95.30
47168;DHT22;32931;47.778;17.806;2023-08-12T02:02:10;19.30;95.30
47168;DHT22;32931;47.778;17.806;2023-08-12T02:04:37;19.30;95.40
47168;DHT22;32931;47.778;17.806;2023-08-12T02:07:04;19.20;95.50
47168;DHT22;32931;47.778;17.806;2023-08-12T02:09:30;19.20;95.50
47168;DHT22;32931;47.778;17.806;2023-08-12T02:11:57;19.20;95.60
47168;DHT22;32931;47.778;17.806;2023-08-12T02:14:23;19.10;95.60
47168;DHT22;32931;47.778;17.806;2023-08-12T02:16:50;19.10;95.60
47168;DHT22;32931;47.778;17.806;2023-08-12T02:19:16;19.10;95.80
47168;DHT22;32931;47.778;17.806;2023-08-12T02:21:42;19.00;95.70
47168;DHT22;32931;47.778;17.806;2023-08-12T02:24:09;19.00;95.70
47168;DHT22;32931;47.778;17.806;2023-08-12T02:26:35;19.10;95.70
47168;DHT22;32931;47.778;17.806;2023-08-12T02:29:01;19.00;95.70
47168;DHT22;32931;47.778;17.806;2023-08-12T02:31:27;18.90;95.80
47168;DHT22;32931;47.778;17.806;2023-08-12T02:33:53;18.90;95.80
47168;DHT22;32931;47.778;17.806;2023-08-12T02:36:20;18.90;95.90
47168;DHT22;32931;47.778;17.806;2023-08-12T02:38:46;18.90;95.90
47168;DHT22;32931;47.778;17.806;2023-08-12T02:41:12;18.80;95.90
47168;DHT22;32931;47.778;17.806;2023-08-12T02:43:38;18.80;95.90
47168;DHT22;32931;47.778;17.806;2023-08-12T02:46:04;18.80;95.80
47168;DHT22;32931;47.778;17.806;2023-08-12T02:48:30;18.70;95.90
47168;DHT22;32931;47.778;17.806;2023-08-12T02:50:56;18.70;96.00
47168;DHT22;32931;47.778;17.806;2023-08-12T02:53:23;18.60;96.10
47168;DHT22;32931;47.778;17.806;2023-08-12T02:55:49;18.60;96.20
47168;DHT22;32931;47.778;17.806;2023-08-12T02:58:15;18.60;96.30
47168;DHT22;32931;47.778;17.806;2023-08-12T03:00:42;18.50;96.30
47168;DHT22;32931;47.778;17.806;2023-08-12T03:03:11;18.50;96.40
47168;DHT22;32931;47.778;17.806;2023-08-12T03:05:37;18.50;96.50
47168;DHT22;32931;47.778;17.806;2023-08-12T03:08:04;18.50;96.50
47168;DHT22;32931;47.778;17.806;2023-08-12T03:10:30;18.50;96.50
47168;DHT22;32931;47.778;17.806;2023-08-12T03:12:57;18.40;96.60
47168;DHT22;32931;47.778;17.806;2023-08-12T03:15:23;18.40;96.70
47168;DHT22;32931;47.778;17.806;2023-08-12T03:17:49;18.40;96.70
47168;DHT22;32931;47.778;17.806;2023-08-12T03:20:15;18.30;96.70
47168;DHT22;32931;47.778;17.806;2023-08-12T03:22:41;18.30;96.80
47168;DHT22;32931;47.778;17.806;2023-08-12T03:25:08;18.30;96.90
47168;DHT22;32931;47.778;17.806;2023-08-12T03:27:34;18.30;96.90
47168;DHT22;32931;47.778;17.806;2023-08-12T03:30:01;18.30;97.00
47168;DHT22;32931;47.778;17.806;2023-08-12T03:32:27;18.30;97.10
47168;DHT22;32931;47.778;17.806;2023-08-12T03:34:53;18.30;97.20
47168;DHT22;32931;47.778;17.806;2023-08-12T03:37:19;18.30;97.20
47168;DHT22;32931;47.778;17.806;2023-08-12T03:39:45;18.20;97.00
47168;DHT22;32931;47.778;17.806;2023-08-12T03:42:12;18.20;97.00
47168;DHT22;32931;47.778;17.806;2023-08-12T03:44:38;18.10;97.00
47168;DHT22;32931;47.778;17.806;2023-08-12T03:47:04;18.10;97.10
47168;DHT22;32931;47.778;17.806;2023-08-12T03:49:30;18.10;97.40
47168;DHT22;32931;47.778;17.806;2023-08-12T03:51:56;18.10;97.40
47168;DHT22;32931;47.778;17.806;2023-08-12T03:54:22;18.10;97.40
47168;DHT22;32931;47.778;17.806;2023-08-12T03:56:49;18.10;97.40
47168;DHT22;32931;47.778;17.806;2023-08-12T03:59:15;18.10;97.30
47168;DHT22;32931;47.778;17.806;2023-08-12T04:01:41;18.00;97.20
47168;DHT22;32931;47.778;17.806;2023-08-12T04:04:07;18.00;97.20
47168;DHT22;32931;47.778;17.806;2023-08-12T04:06:33;18.00;97.30
47168;DHT22;32931;47.778;17.806;2023-08-12T04:08:59;17.90;97.30
47168;DHT22;32931;47.778;17.806;2023-08-12T04:11:25;17.90;97.30
47168;DHT22;32931;47.778;17.806;2023-08-12T04:13:52;17.80;97.20
47168;DHT22;32931;47.778;17.806;2023-08-12T04:16:18;17.70;97.20
47168;DHT22;32931;47.778;17.806;2023-08-12T04:18:44;17.70;97.30
47168;DHT22;32931;47.778;17.806;2023-08-12T04:21:10;17.60;97.40
47168;DHT22;32931;47.778;17.806;2023-08-12T04:23:37;17.60;97.50
47168;DHT22;32931;47.778;17.806;2023-08-12T04:26:03;17.60;97.60
47168;DHT22;32931;47.778;17.806;2023-08-12T04:28:29;17.60;97.70
47168;DHT22;32931;47.778;17.806;2023-08-12T04:30:55;17.60;97.90
47168;DHT22;32931;47.778;17.806;2023-08-12T04:33:22;17.60;98.10
47168;DHT22;32931;47.778;17.806;2023-08-12T04:35:48;17.70;98.30
47168;DHT22;32931;47.778;17.806;2023-08-12T04:38:14;17.70;98.40
47168;DHT22;32931;47.778;17.806;2023-08-12T04:40:42;17.80;98.50
47168;DHT22;32931;47.778;17.806;2023-08-12T04:43:09;17.80;98.60
47168;DHT22;32931;47.778;17.806;2023-08-12T04:45:35;17.90;98.60
47168;DHT22;32931;47.778;17.806;2023-08-12T04:48:01;17.90;98.60
47168;DHT22;32931;47.778;17.806;2023-08-12T04:50:31;17.90;98.90
47168;DHT22;32931;47.778;17.806;2023-08-12T04:52:57;18.00;99.20
47168;DHT22;32931;47.778;17.806;2023-08-12T04:55:25;18.00;99.20
47168;DHT22;32931;47.778;17.806;2023-08-12T04:57:51;18.10;99.30
47168;DHT22;32931;47.778;17.806;2023-08-12T05:00:19;18.20;99.50
47168;DHT22;32931;47.778;17.806;2023-08-12T05:02:45;18.20;99.60
47168;DHT22;32931;47.778;17.806;2023-08-12T05:05:11;18.30;99.80
47168;DHT22;32931;47.778;17.806;2023-08-12T05:07:37;18.40;99.90
47168;DHT22;32931;47.778;17.806;2023-08-12T05:10:03;18.50;99.90
47168;DHT22;32931;47.778;17.806;2023-08-12T05:12:29;18.50;99.90
47168;DHT22;32931;47.778;17.806;2023-08-12T05:14:55;18.60;99.90
47168;DHT22;32931;47.778;17.806;2023-08-12T05:17:22;18.70;99.90
47168;DHT22;32931;47.778;17.806;2023-08-12T05:19:48;18.70;99.90
47168;DHT22;32931;47.778;17.806;2023-08-12T05:22:15;18.70;99.90
47168;DHT22;32931;47.778;17.806;2023-08-12T05:24:42;18.80;99.90
47168;DHT22;32931;47.778;17.806;2023-08-12T05:27:08;18.90;99.90
47168;DHT22;32931;47.778;17.806;2023-08-12T05:29:34;18.90;99.90
47168;DHT22;32931;47.778;17.806;2023-08-12T05:32:00;19.00;99.90
47168;DHT22;32931;47.778;17.806;2023-08-12T05:34:26;19.00;99.90
47168;DHT22;32931;47.778;17.806;2023-08-12T05:36:53;19.10;99.90
47168;DHT22;32931;47.778;17.806;2023-08-12T05:39:19;19.20;99.90
47168;DHT22;32931;47.778;17.806;2023-08-12T05:41:45;19.20;99.90
47168;DHT22;32931;47.778;17.806;2023-08-12T05:44:12;19.30;99.90
47168;DHT22;32931;47.778;17.806;2023-08-12T05:46:38;19.40;99.90
47168;DHT22;32931;47.778;17.806;2023-08-12T05:49:04;19.40;99.90
47168;DHT22;32931;47.778;17.806;2023-08-12T05:51:30;19.50;99.90
47168;DHT22;32931;47.778;17.806;2023-08-12T05:53:56;19.50;99.90
47168;DHT22;32931;47.778;17.806;2023-08-12T05:56:23;19.60;99.90
47168;DHT22;32931;47.778;17.806;2023-08-12T05:58:49;19.70;99.90
47168;DHT22;32931;47.778;17.806;2023-08-12T06:01:15;19.70;99.90
47168;DHT22;32931;47.778;17.806;2023-08-12T06:03:41;19.80;99.90
47168;DHT22;32931;47.778;17.806;2023-08-12T06:06:07;19.90;99.90
47168;DHT22;32931;47.778;17.806;2023-08-12T06:08:33;19.90;99.90
47168;DHT22;32931;47.778;17.806;2023-08-12T06:11:00;20.00;99.90
47168;DHT22;32931;47.778;17.806;2023-08-12T06:13:26;20.10;99.90
47168;DHT22;32931;47.778;17.806;2023-08-12T06:15:52;20.10;99.90
47168;DHT22;32931;47.778;17.806;2023-08-12T06:18:18;20.20;99.80
47168;DHT22;32931;47.778;17.806;2023-08-12T06:20:44;20.20;99.70
47168;DHT22;32931;47.778;17.806;2023-08-12T06:23:10;20.30;99.40
47168;DHT22;32931;47.778;17.806;2023-08-12T06:25:37;20.40;99.40
47168;DHT22;32931;47.778;17.806;2023-08-12T06:28:03;20.50;99.30
47168;DHT22;32931;47.778;17.806;2023-08-12T06:30:30;20.50;99.20
47168;DHT22;32931;47.778;17.806;2023-08-12T06:32:56;20.60;99.00
47168;DHT22;32931;47.778;17.806;2023-08-12T06:35:22;20.60;98.90
47168;DHT22;32931;47.778;17.806;2023-08-12T06:37:48;20.70;98.80
47168;DHT22;32931;47.778;17.806;2023-08-12T06:40:15;20.70;98.60
47168;DHT22;32931;47.778;17.806;2023-08-12T06:42:41;20.80;98.30
47168;DHT22;32931;47.778;17.806;2023-08-12T06:45:08;20.90;98.10
47168;DHT22;32931;47.778;17.806;2023-08-12T06:47:34;21.00;97.90
47168;DHT22;32931;47.778;17.806;2023-08-12T06:50:00;21.00;97.80
47168;DHT22;32931;47.778;17.806;2023-08-12T06:52:26;21.10;97.80
47168;DHT22;32931;47.778;17.806;2023-08-12T06:54:52;21.10;97.70
47168;DHT22;32931;47.778;17.806;2023-08-12T06:57:19;21.20;97.80
47168;DHT22;32931;47.778;17.806;2023-08-12T06:59:45;21.30;97.70
47168;DHT22;32931;47.778;17.806;2023-08-12T07:02:12;21.30;97.70
47168;DHT22;32931;47.778;17.806;2023-08-12T07:04:38;21.40;97.50
47168;DHT22;32931;47.778;17.806;2023-08-12T07:07:04;21.50;97.30
47168;DHT22;32931;47.778;17.806;2023-08-12T07:09:30;21.50;97.20
47168;DHT22;32931;47.778;17.806;2023-08-12T07:11:56;21.60;97.20
47168;DHT22;32931;47.778;17.806;2023-08-12T07:14:22;21.70;97.10
47168;DHT22;32931;47.778;17.806;2023-08-12T07:16:49;21.80;97.00
47168;DHT22;32931;47.778;17.806;2023-08-12T07:19:15;21.80;96.90
47168;DHT22;32931;47.778;17.806;2023-08-12T07:21:41;21.90;96.80
47168;DHT22;32931;47.778;17.806;2023-08-12T07:24:07;22.00;96.70
47168;DHT22;32931;47.778;17.806;2023-08-12T07:26:33;22.10;96.60
47168;DHT22;32931;47.778;17.806;2023-08-12T07:28:59;22.10;96.20
47168;DHT22;32931;47.778;17.806;2023-08-12T07:31:25;22.20;96.00
47168;DHT22;32931;47.778;17.806;2023-08-12T07:33:52;22.30;95.60
47168;DHT22;32931;47.778;17.806;2023-08-12T07:36:18;22.30;95.60
47168;DHT22;32931;47.778;17.806;2023-08-12T07:38:44;22.30;95.60
47168;DHT22;32931;47.778;17.806;2023-08-12T07:41:10;22.40;95.40
47168;DHT22;32931;47.778;17.806;2023-08-12T07:43:36;22.50;95.30
47168;DHT22;32931;47.778;17.806;2023-08-12T07:46:02;22.60;95.10
47168;DHT22;32931;47.778;17.806;2023-08-12T07:48:29;22.60;94.80
47168;DHT22;32931;47.778;17.806;2023-08-12T07:50:56;22.70;95.20
47168;DHT22;32931;47.778;17.806;2023-08-12T07:53:23;22.80;94.80
47168;DHT22;32931;47.778;17.806;2023-08-12T07:55:49;22.80;94.60
47168;DHT22;32931;47.778;17.806;2023-08-12T07:58:15;22.90;94.60
47168;DHT22;32931;47.778;17.806;2023-08-12T08:00:42;23.00;94.70
47168;DHT22;32931;47.778;17.806;2023-08-12T08:03:08;23.00;94.50
47168;DHT22;32931;47.778;17.806;2023-08-12T08:05:34;23.10;94.60
47168;DHT22;32931;47.778;17.806;2023-08-12T08:08:00;23.10;94.40
47168;DHT22;32931;47.778;17.806;2023-08-12T08:10:26;23.20;94.40
47168;DHT22;32931;47.778;17.806;2023-08-12T08:12:52;23.30;94.30
47168;DHT22;32931;47.778;17.806;2023-08-12T08:15:19;23.30;94.50
47168;DHT22;32931;47.778;17.806;2023-08-12T08:17:45;23.40;94.40
47168;DHT22;32931;47.778;17.806;2023-08-12T08:20:11;23.50;94.20
47168;DHT22;32931;47.778;17.806;2023-08-12T08:22:37;23.50;94.30
47168;DHT22;32931;47.778;17.806;2023-08-12T08:25:03;23.60;94.00
47168;DHT22;32931;47.778;17.806;2023-08-12T08:27:30;23.60;93.50
47168;DHT22;32931;47.778;17.806;2023-08-12T08:29:57;23.70;93.60
47168;DHT22;32931;47.778;17.806;2023-08-12T08:32:23;23.70;93.90
47168;DHT22;32931;47.778;17.806;2023-08-12T08:34:50;23.80;93.90
47168;DHT22;32931;47.778;17.806;2023-08-12T08:37:16;23.80;93.60
47168;DHT22;32931;47.778;17.806;2023-08-12T08:39:42;23.90;93.60
47168;DHT22;32931;47.778;17.806;2023-08-12T08:42:10;24.00;93.60
47168;DHT22;32931;47.778;17.806;2023-08-12T08:44:40;24.00;93.60
47168;DHT22;32931;47.778;17.806;2023-08-12T08:47:08;24.10;93.50
47168;DHT22;32931;47.778;17.806;2023-08-12T08:49:36;24.20;93.60
47168;DHT22;32931;47.778;17.806;2023-08-12T08:52:02;24.20;93.50
47168;DHT22;32931;47.778;17.806;2023-08-12T08:54:29;24.30;93.30
47168;DHT22;32931;47.778;17.806;2023-08-12T08:56:55;24.30;93.50
47168;DHT22;32931;47.778;17.806;2023-08-12T08:59:22;24.40;93.40
47168;DHT22;32931;47.778;17.806;2023-08-12T09:01:49;24.40;93.00
47168;DHT22;32931;47.778;17.806;2023-08-12T09:04:17;24.50;92.90
47168;DHT22;32931;47.778;17.806;2023-08-12T09:06:45;24.60;92.50
47168;DHT22;32931;47.778;17.806;2023-08-12T09:09:14;24.60;92.40
47168;DHT22;32931;47.778;17.806;2023-08-12T09:11:42;24.70;92.50
47168;DHT22;32931;47.778;17.806;2023-08-12T09:14:09;24.70;92.50
47168;DHT22;32931;47.778;17.806;2023-08-12T09:16:36;24.80;92.20
47168;DHT22;32931;47.778;17.806;2023-08-12T09:19:03;24.90;92.50
47168;DHT22;32931;47.778;17.806;2023-08-12T09:21:29;24.90;91.90
47168;DHT22;32931;47.778;17.806;2023-08-12T09:23:55;25.00;91.70
47168;DHT22;32931;47.778;17.806;2023-08-12T09:26:21;25.00;91.70
47168;DHT22;32931;47.778;17.806;2023-08-12T09:28:48;25.10;91.90
47168;DHT22;32931;47.778;17.806;2023-08-12T09:31:24;25.20;91.50
47168;DHT22;32931;47.778;17.806;2023-08-12T09:33:51;25.20;91.40
47168;DHT22;32931;47.778;17.806;2023-08-12T09:36:17;25.30;91.20
47168;DHT22;32931;47.778;17.806;2023-08-12T09:38:44;25.30;91.20
47168;DHT22;32931;47.778;17.806;2023-08-12T09:41:10;25.40;91.20
47168;DHT22;32931;47.778;17.806;2023-08-12T09:43:41;25.50;91.20
47168;DHT22;32931;47.778;17.806;2023-08-12T09:46:12;25.60;91.40
47168;DHT22;32931;47.778;17.806;2023-08-12T09:48:40;25.60;91.10
47168;DHT22;32931;47.778;17.806;2023-08-12T09:51:07;25.70;90.80
47168;DHT22;32931;47.778;17.806;2023-08-12T09:53:33;25.70;91.00
47168;DHT22;32931;47.778;17.806;2023-08-12T09:56:06;25.80;90.80
47168;DHT22;32931;47.778;17.806;2023-08-12T09:58:35;25.80;87.80
47168;DHT22;32931;47.778;17.806;2023-08-12T10:01:03;25.90;89.20
47168;DHT22;32931;47.778;17.806;2023-08-12T10:03:34;25.90;88.20
47168;DHT22;32931;47.778;17.806;2023-08-12T10:06:01;26.00;89.30
47168;DHT22;32931;47.778;17.806;2023-08-12T10:08:30;26.00;88.30
47168;DHT22;32931;47.778;17.806;2023-08-12T10:10:57;26.10;88.70
47168;DHT22;32931;47.778;17.806;2023-08-12T10:13:24;26.20;88.90
47168;DHT22;32931;47.778;17.806;2023-08-12T10:15:50;26.20;88.00
47168;DHT22;32931;47.778;17.806;2023-08-12T10:18:18;26.30;88.20
47168;DHT22;32931;47.778;17.806;2023-08-12T10:20:45;26.30;88.40
47168;DHT22;32931;47.778;17.806;2023-08-12T10:23:15;26.40;86.50
47168;DHT22;32931;47.778;17.806;2023-08-12T10:25:43;26.40;86.30
47168;DHT22;32931;47.778;17.806;2023-08-12T10:28:11;26.50;87.40
47168;DHT22;32931;47.778;17.806;2023-08-12T10:30:37;26.60;87.30
47168;DHT22;32931;47.778;17.806;2023-08-12T10:33:05;26.70;85.90
47168;DHT22;32931;47.778;17.806;2023-08-12T10:35:46;26.80;86.30
47168;DHT22;32931;47.778;17.806;2023-08-12T10:38:19;26.90;85.80
47168;DHT22;32931;47.778;17.806;2023-08-12T10:40:47;26.90;83.00
47168;DHT22;32931;47.778;17.806;2023-08-12T10:43:13;26.90;84.90
47168;DHT22;32931;47.778;17.806;2023-08-12T10:45:52;27.00;85.50
47168;DHT22;32931;47.778;17.806;2023-08-12T10:48:22;27.10;84.50
47168;DHT22;32931;47.778;17.806;2023-08-12T10:50:52;27.20;85.30
47168;DHT22;32931;47.778;17.806;2023-08-12T10:53:28;27.30;82.50
47168;DHT22;32931;47.778;17.806;2023-08-12T10:56:02;27.30;82.40
47168;DHT22;32931;47.778;17.806;2023-08-12T10:58:40;27.40;83.40
47168;DHT22;32931;47.778;17.806;2023-08-12T11:01:20;27.40;80.90
47168;DHT22;32931;47.778;17.806;2023-08-12T11:03:48;27.40;83.30
47168;DHT22;32931;47.778;17.806;2023-08-12T11:06:14;27.50;83.20
47168;DHT22;32931;47.778;17.806;2023-08-12T11:08:53;27.60;81.90
47168;DHT22;32931;47.778;17.806;2023-08-12T11:11:23;27.70;83.50
47168;DHT22;32931;47.778;17.806;2023-08-12T11:13:54;27.70;78.50
47168;DHT22;32931;47.778;17.806;2023-08-12T11:16:40;27.70;81.30
47168;DHT22;32931;47.778;17.806;2023-08-12T11:19:08;27.90;82.10
47168;DHT22;32931;47.778;17.806;2023-08-12T11:21:38;28.00;81.60
47168;DHT22;32931;47.778;17.806;2023-08-12T11:24:05;28.00;78.60
47168;DHT22;32931;47.778;17.806;2023-08-12T11:26:31;28.10;79.70
47168;DHT22;32931;47.778;17.806;2023-08-12T11:28:57;28.10;80.40
47168;DHT22;32931;47.778;17.806;2023-08-12T11:31:23;28.20;79.90
47168;DHT22;32931;47.778;17.806;2023-08-12T11:33:50;28.30;78.40
47168;DHT22;32931;47.778;17.806;2023-08-12T11:36:18;28.30;79.40
47168;DHT22;32931;47.778;17.806;2023-08-12T11:38:45;28.40;80.00
47168;DHT22;32931;47.778;17.806;2023-08-12T11:41:11;28.50;79.30
47168;DHT22;32931;47.778;17.806;2023-08-12T11:43:38;28.70;80.20
47168;DHT22;32931;47.778;17.806;2023-08-12T11:46:04;28.80;80.60
47168;DHT22;32931;47.778;17.806;2023-08-12T11:48:30;28.90;80.20
47168;DHT22;32931;47.778;17.806;2023-08-12T11:50:57;29.00;79.30
47168;DHT22;32931;47.778;17.806;2023-08-12T11:53:23;29.10;77.60
47168;DHT22;32931;47.778;17.806;2023-08-12T11:55:50;29.20;75.00
47168;DHT22;32931;47.778;17.806;2023-08-12T11:58:16;29.30;76.50
47168;DHT22;32931;47.778;17.806;2023-08-12T12:00:46;29.40;78.40
47168;DHT22;32931;47.778;17.806;2023-08-12T12:03:12;29.60;78.00
47168;DHT22;32931;47.778;17.806;2023-08-12T12:05:38;29.60;77.60
47168;DHT22;32931;47.778;17.806;2023-08-12T12:08:05;29.80;76.20
47168;DHT22;32931;47.778;17.806;2023-08-12T12:10:34;29.90;75.20
47168;DHT22;32931;47.778;17.806;2023-08-12T12:13:03;30.00;74.20
47168;DHT22;32931;47.778;17.806;2023-08-12T12:15:30;30.10;73.40
47168;DHT22;32931;47.778;17.806;2023-08-12T12:17:56;30.20;76.50
47168;DHT22;32931;47.778;17.806;2023-08-12T12:20:22;30.40;77.00
47168;DHT22;32931;47.778;17.806;2023-08-12T12:22:49;30.60;74.90
47168;DHT22;32931;47.778;17.806;2023-08-12T12:25:16;30.80;75.00
47168;DHT22;32931;47.778;17.806;2023-08-12T12:27:45;31.00;75.20
47168;DHT22;32931;47.778;17.806;2023-08-12T12:30:13;31.20;74.60
47168;DHT22;32931;47.778;17.806;2023-08-12T12:32:39;31.40;73.80
47168;DHT22;32931;47.778;17.806;2023-08-12T12:35:06;31.60;73.60
47168;DHT22;32931;47.778;17.806;2023-08-12T12:37:36;31.70;72.60
47168;DHT22;32931;47.778;17.806;2023-08-12T12:40:03;31.70;70.20
47168;DHT22;32931;47.778;17.806;2023-08-12T12:42:30;31.60;70.40
47168;DHT22;32931;47.778;17.806;2023-08-12T12:44:56;31.40;70.40
47168;DHT22;32931;47.778;17.806;2023-08-12T12:47:22;31.10;70.40
47168;DHT22;32931;47.778;17.806;2023-08-12T12:49:48;30.80;71.30
47168;DHT22;32931;47.778;17.806;2023-08-12T12:52:14;30.70;72.20
47168;DHT22;32931;47.778;17.806;2023-08-12T12:54:41;30.40;72.30
47168;DHT22;32931;47.778;17.806;2023-08-12T12:57:07;30.30;73.10
47168;DHT22;32931;47.778;17.806;2023-08-12T12:59:33;30.10;73.60
47168;DHT22;32931;47.778;17.806;2023-08-12T13:01:59;30.00;72.60
47168;DHT22;32931;47.778;17.806;2023-08-12T13:04:25;29.90;72.20
47168;DHT22;32931;47.778;17.806;2023-08-12T13:06:51;29.80;72.60
47168;DHT22;32931;47.778;17.806;2023-08-12T13:09:17;29.70;73.50
47168;DHT22;32931;47.778;17.806;2023-08-12T13:11:44;29.60;72.90
47168;DHT22;32931;47.778;17.806;2023-08-12T13:14:10;29.50;73.10
47168;DHT22;32931;47.778;17.806;2023-08-12T13:16:36;29.40;72.90
47168;DHT22;32931;47.778;17.806;2023-08-12T13:19:02;29.40;72.40
47168;DHT22;32931;47.778;17.806;2023-08-12T13:21:28;29.30;73.20
47168;DHT22;32931;47.778;17.806;2023-08-12T13:23:54;29.30;74.20
47168;DHT22;32931;47.778;17.806;2023-08-12T13:26:23;29.20;74.00
47168;DHT22;32931;47.778;17.806;2023-08-12T13:28:49;29.10;74.80
47168;DHT22;32931;47.778;17.806;2023-08-12T13:31:15;29.10;75.20
47168;DHT22;32931;47.778;17.806;2023-08-12T13:33:42;29.10;74.70
47168;DHT22;32931;47.778;17.806;2023-08-12T13:36:08;29.10;76.00
47168;DHT22;32931;47.778;17.806;2023-08-12T13:38:34;29.10;76.20
47168;DHT22;32931;47.778;17.806;2023-08-12T13:41:00;29.10;76.40
47168;DHT22;32931;47.778;17.806;2023-08-12T13:43:26;29.10;75.20
47168;DHT22;32931;47.778;17.806;2023-08-12T13:45:52;29.10;73.70
47168;DHT22;32931;47.778;17.806;2023-08-12T13:48:19;29.10;73.70
47168;DHT22;32931;47.778;17.806;2023-08-12T13:50:45;29.20;73.80
47168;DHT22;32931;47.778;17.806;2023-08-12T13:53:15;29.20;73.00
47168;DHT22;32931;47.778;17.806;2023-08-12T13:55:41;29.20;73.00
47168;DHT22;32931;47.778;17.806;2023-08-12T13:58:07;29.20;72.50
47168;DHT22;32931;47.778;17.806;2023-08-12T14:00:34;29.20;73.20
47168;DHT22;32931;47.778;17.806;2023-08-12T14:03:00;29.20;74.60
47168;DHT22;32931;47.778;17.806;2023-08-12T14:05:26;29.10;72.60
47168;DHT22;32931;47.778;17.806;2023-08-12T14:07:53;29.20;71.80
47168;DHT22;32931;47.778;17.806;2023-08-12T14:10:19;29.20;72.30
47168;DHT22;32931;47.778;17.806;2023-08-12T14:12:45;29.10;71.40
47168;DHT22;32931;47.778;17.806;2023-08-12T14:15:14;29.10;71.80
47168;DHT22;32931;47.778;17.806;2023-08-12T14:17:40;29.10;74.00
47168;DHT22;32931;47.778;17.806;2023-08-12T14:20:07;29.20;75.30
47168;DHT22;32931;47.778;17.806;2023-08-12T14:22:34;29.20;74.70
47168;DHT22;32931;47.778;17.806;2023-08-12T14:25:02;29.30;74.90
47168;DHT22;32931;47.778;17.806;2023-08-12T14:27:30;29.40;73.90
47168;DHT22;32931;47.778;17.806;2023-08-12T14:29:56;29.60;74.40
47168;DHT22;32931;47.778;17.806;2023-08-12T14:32:22;29.90;75.00
47168;DHT22;32931;47.778;17.806;2023-08-12T14:34:48;30.30;75.90
47168;DHT22;32931;47.778;17.806;2023-08-12T14:37:14;30.70;74.80
47168;DHT22;32931;47.778;17.806;2023-08-12T14:39:40;31.00;72.40
47168;DHT22;32931;47.778;17.806;2023-08-12T14:42:06;31.30;73.30
47168;DHT22;32931;47.778;17.806;2023-08-12T14:44:34;31.70;74.00
47168;DHT22;32931;47.778;17.806;2023-08-12T14:47:01;31.90;72.40
47168;DHT22;32931;47.778;17.806;2023-08-12T14:49:27;32.20;72.50
47168;DHT22;32931;47.778;17.806;2023-08-12T14:51:56;32.30;72.50
47168;DHT22;32931;47.778;17.806;2023-08-12T14:54:23;32.60;71.80
47168;DHT22;32931;47.778;17.806;2023-08-12T14:56:49;32.80;71.20
47168;DHT22;32931;47.778;17.806;2023-08-12T14:59:15;33.00;70.20
47168;DHT22;32931;47.778;17.806;2023-08-12T15:01:41;33.10;71.10
47168;DHT22;32931;47.778;17.806;2023-08-12T15:04:07;33.30;70.90
47168;DHT22;32931;47.778;17.806;2023-08-12T15:06:34;33.50;70.90
47168;DHT22;32931;47.778;17.806;2023-08-12T15:09:00;33.70;71.30
47168;DHT22;32931;47.778;17.806;2023-08-12T15:11:26;33.90;68.70
47168;DHT22;32931;47.778;17.806;2023-08-12T15:13:52;34.00;68.20
47168;DHT22;32931;47.778;17.806;2023-08-12T15:16:18;34.20;68.50